Aérodrome :
LOGIN :

S'inscrire | Disclaimer

   EN    FR    IT 

 










Légende :    VFR   VFR Marginal   IFR   IFR Intensif   IFR Très Intensif
Visi : 
Plafond : 
>= 8 km
>= 3000ft
5 à 8 km
1000 à 3000 ft
1500m à 5 km
500 à 1000 ft
800 à 1500m
200 à 500 ft
< 800m
< 200 ft
Symboles :   Orages  Brouillard  Fortes neiges  Fortes précipitations  Vent > 20 kt
SIGMETs :   Divers  Orages  Givrage  Turbulence  Onde Orograph.  Cendres Volcan.






- Altitude de l'aérodrome : 41 ft
- Code IATA : PFO


LCPH - Pafos Int.

DERNIER METAR :
  • 300300Z 01006KT 9999 SCT025 15/13 Q1016

METARs EXPIRÉS :
  • 300230Z AUTO 01007KT 9999 OVC023 15/13 Q1016
  • 300200Z AUTO 01004KT 9999 OVC023 15/12 Q1016
  • 300130Z AUTO 03004KT 9999 BKN021 OVC026 16/14 Q1016
  • 300100Z AUTO 34004KT 9999 BKN021 OVC038 16/13 Q1016
  • 300030Z AUTO 36005KT 9999 OVC021 16/13 Q1016

TAF TAF LCPH
Valide du 30 à 00h jusqu'au 31 à 00h UTC


292330Z 3000/3024 02006KT 9999 SCT020
BECMG 3006/3009 28013KT
BECMG 3015/3018 34010KT



MET'MAP, la Météo Aéronautique d'un coup d'oeil ! - Copyright ORBIFLY Décembre 2007 - Disclaimer

ORBIFLY MET'MAP TEAM :

Programmation & Développement : Alexandra Zaïnal
Sur une idée originale de : Baudouin d'Aumeries
Assistance à la programmation : Marc-Olivier Méhu
Soutien technique & logistique : Manuel Goepfert

Contact : metmap@orbifly.com




SOURCES & CREDITS :

   NOAA